Time;durP1;ratioP1;P1;durP2;ratioP2;P2;SDS_P1;SDS_P2;PMS_P1;PMS_P2;Temp;Humidity;BMP_temperature;BMP_pressure;BME280_temperature;BME280_humidity;BME280_pressure;Samples;Min_cycle;Max_cycle;Signal;HPM_P1;HPM_P2
2023/02/01 00:00:57;;;;;;;0.70;0.50;;;;;;;3.17;97.71;97916.09;5059974;28;20040;-59
2023/02/01 00:03:24;;;;;;;2.80;1.25;;;;;;;2.98;98.52;97900.47;5058397;28;20053;-60
2023/02/01 00:05:58;;;;;;;2.63;1.10;;;;;;;3.01;98.63;97906.44;5059208;28;20048;-61
2023/02/01 00:08:25;;;;;;;2.55;0.70;;;;;;;3.07;98.26;97909.22;5060629;28;20392;-59
2023/02/01 00:11:03;;;;;;;1.25;0.70;;;;;;;3.17;97.71;97916.91;5057687;28;20052;-61
2023/02/01 00:13:32;;;;;;;2.22;1.10;;;;;;;3.22;97.08;97914.50;5055923;28;20044;-61
2023/02/01 00:16:29;;;;;;;2.35;1.20;;;;;;;3.18;97.99;97915.06;5054500;28;20056;-60
2023/02/01 00:18:59;;;;;;;1.48;0.88;;;;;;;3.20;97.72;97918.38;5057231;28;20078;-60
2023/02/01 00:21:26;;;;;;;3.50;1.50;;;;;;;2.97;99.27;97924.75;5055481;28;20832;-61
2023/02/01 00:23:52;;;;;;;3.00;1.33;;;;;;;2.84;100.00;97917.41;5053801;28;20512;-61
2023/02/01 00:26:25;;;;;;;3.85;1.30;;;;;;;2.90;99.94;97913.97;5053670;28;20130;-61
2023/02/01 00:28:52;;;;;;;2.25;1.05;;;;;;;2.90;100.00;97907.78;5059800;28;20102;-61
2023/02/01 00:31:18;;;;;;;1.77;1.08;;;;;;;2.99;99.49;97912.81;5060920;28;20037;-62
2023/02/01 00:33:47;;;;;;;2.38;0.95;;;;;;;2.82;100.00;97906.91;5061661;28;20567;-62
2023/02/01 00:36:15;;;;;;;2.50;1.17;;;;;;;2.77;100.00;97908.47;5060773;28;20032;-61
2023/02/01 00:38:42;;;;;;;2.42;1.17;;;;;;;2.67;100.00;97914.13;5061758;28;20044;-62
2023/02/01 00:41:19;;;;;;;3.05;1.20;;;;;;;2.62;100.00;97909.34;5059189;28;20045;-62
2023/02/01 00:43:47;;;;;;;3.17;1.38;;;;;;;2.72;100.00;97917.88;5060923;28;20690;-62
2023/02/01 00:46:15;;;;;;;3.08;1.50;;;;;;;2.71;100.00;97918.91;5054172;28;20090;-62
2023/02/01 00:48:42;;;;;;;3.03;1.38;;;;;;;2.64;100.00;97919.81;5052822;28;20044;-62
2023/02/01 00:51:12;;;;;;;2.95;1.40;;;;;;;2.65;100.00;97905.47;5055498;28;20499;-62
2023/02/01 00:53:39;;;;;;;3.05;1.52;;;;;;;2.65;100.00;97905.47;5063379;28;20047;-62
2023/02/01 00:56:06;;;;;;;4.55;1.63;;;;;;;2.60;100.00;97904.19;5059016;28;20044;-62
2023/02/01 00:58:33;;;;;;;3.60;1.45;;;;;;;2.49;100.00;97901.97;5059585;28;20079;-62
2023/02/01 01:01:12;;;;;;;4.20;1.50;;;;;;;2.43;100.00;97895.53;5058944;28;20067;-62
2023/02/01 01:03:44;;;;;;;3.42;1.30;;;;;;;2.52;100.00;97892.75;5060181;28;20522;-62
2023/02/01 01:06:14;;;;;;;2.50;1.33;;;;;;;2.49;100.00;97895.78;5058432;28;20115;-61
2023/02/01 01:08:41;;;;;;;2.80;1.48;;;;;;;2.34;100.00;97885.97;5056295;28;20056;-61
2023/02/01 01:11:15;;;;;;;3.63;1.73;;;;;;;2.29;100.00;97875.00;5050296;28;20273;-61
2023/02/01 01:13:41;;;;;;;4.10;1.70;;;;;;;2.26;100.00;97870.03;5059775;28;20048;-60
2023/02/01 01:16:10;;;;;;;2.70;1.40;;;;;;;2.33;100.00;97862.94;5052240;28;20124;-61
2023/02/01 01:18:37;;;;;;;3.80;1.20;;;;;;;2.34;100.00;97867.25;5052831;28;20060;-61
2023/02/01 01:21:05;;;;;;;2.42;1.30;;;;;;;2.40;100.00;97871.03;5055449;28;20045;-58
2023/02/01 01:23:32;;;;;;;4.57;1.40;;;;;;;2.33;100.00;97877.09;5058630;28;20048;-62
2023/02/01 01:26:00;;;;;;;2.47;1.38;;;;;;;2.33;100.00;97863.75;5052614;28;20041;-61
2023/02/01 01:28:26;;;;;;;3.15;1.67;;;;;;;2.40;100.00;97857.66;5057203;28;20044;-61
2023/02/01 01:30:53;;;;;;;3.05;1.40;;;;;;;2.45;100.00;97873.97;5054187;28;20041;-61
2023/02/01 01:33:19;;;;;;;2.50;1.45;;;;;;;2.42;100.00;97875.16;5056242;28;20119;-61
2023/02/01 01:35:46;;;;;;;2.80;1.40;;;;;;;2.61;100.00;97872.91;5054645;28;20486;-60
2023/02/01 01:38:13;;;;;;;4.95;1.92;;;;;;;2.72;100.00;97880.44;5057861;28;20048;-61
2023/02/01 01:40:44;;;;;;;2.53;1.17;;;;;;;2.40;100.00;97871.84;5051244;28;20037;-61
2023/02/01 01:43:15;;;;;;;3.50;1.40;;;;;;;2.32;100.00;97872.78;5056187;28;20052;-61
2023/02/01 01:45:42;;;;;;;2.72;1.40;;;;;;;2.55;100.00;97874.47;5050867;28;20494;-61
2023/02/01 01:48:20;;;;;;;4.15;1.48;;;;;;;2.52;100.00;97872.19;5055706;28;20719;-61
2023/02/01 01:51:05;;;;;;;2.97;1.33;;;;;;;2.58;100.00;97859.94;5050498;28;20045;-61
2023/02/01 01:53:38;;;;;;;3.00;1.40;;;;;;;2.29;100.00;97851.75;5059049;28;20048;-62
2023/02/01 01:56:05;;;;;;;3.35;1.55;;;;;;;2.18;100.00;97857.59;5056871;28;20123;-62
2023/02/01 01:58:33;;;;;;;3.42;1.67;;;;;;;2.19;100.00;97859.25;5063611;28;22351;-60
2023/02/01 02:01:00;;;;;;;4.53;1.88;;;;;;;2.24;100.00;97858.72;5054805;28;20652;-60
2023/02/01 02:03:30;;;;;;;4.07;1.63;;;;;;;2.14;100.00;97854.44;5060685;28;20123;-61
2023/02/01 02:05:59;;;;;;;3.42;1.45;;;;;;;2.28;100.00;97851.97;5050282;28;20049;-61
2023/02/01 02:08:26;;;;;;;3.63;1.75;;;;;;;2.23;100.00;97855.19;5056643;28;20127;-61
2023/02/01 02:10:59;;;;;;;3.22;1.60;;;;;;;2.13;100.00;97855.47;5051543;28;20037;-61
2023/02/01 02:13:41;;;;;;;3.75;1.50;;;;;;;2.19;100.00;97846.72;5062004;28;20446;-58
2023/02/01 02:16:25;;;;;;;3.10;1.52;;;;;;;2.24;100.00;97848.81;5050484;28;20044;-61
2023/02/01 02:19:09;;;;;;;2.55;1.33;;;;;;;2.11;100.00;97843.31;5058336;28;20048;-61
2023/02/01 02:21:48;;;;;;;3.40;1.75;;;;;;;2.08;100.00;97848.03;5053350;28;20440;-61
2023/02/01 02:24:23;;;;;;;3.15;1.80;;;;;;;1.99;100.00;97843.78;5052647;28;20053;-62
2023/02/01 02:27:22;;;;;;;2.95;1.55;;;;;;;1.96;100.00;97836.16;5058667;28;20040;-61
2023/02/01 02:30:34;;;;;;;3.80;1.50;;;;;;;2.08;100.00;97834.69;5053927;28;20047;-61
2023/02/01 02:33:39;;;;;;;3.40;1.60;;;;;;;2.14;100.00;97834.94;5051593;28;20040;-62
2023/02/01 02:36:21;;;;;;;4.22;1.58;;;;;;;2.11;100.00;97838.81;5058377;28;20127;-61
2023/02/01 02:39:21;;;;;;;2.67;1.42;;;;;;;2.16;100.00;97839.09;5061573;28;20130;-62
2023/02/01 02:47:55;;;;;;;4.30;1.77;;;;;;;2.54;100.00;97830.06;5057240;28;20081;-60
2023/02/01 03:04:57;;;;;;;2.10;1.10;;;;;;;3.26;99.06;97826.63;5052187;28;20044;-59
2023/02/01 03:07:43;;;;;;;1.50;0.90;;;;;;;3.25;99.38;97820.44;5051798;28;20122;-61
2023/02/01 03:10:23;;;;;;;2.75;0.90;;;;;;;3.30;99.43;97816.34;5052901;28;20043;-61
2023/02/01 03:12:57;;;;;;;1.63;0.85;;;;;;;3.16;99.91;97805.53;5059536;28;20063;-60
2023/02/01 03:15:38;;;;;;;1.52;0.90;;;;;;;3.17;99.96;97803.72;5065870;28;20048;-62
2023/02/01 03:18:12;;;;;;;2.05;1.00;;;;;;;3.25;99.15;97782.97;5061144;28;20054;-61
2023/02/01 03:20:43;;;;;;;1.58;0.95;;;;;;;3.36;98.23;97778.13;5059519;28;20048;-61
2023/02/01 03:23:14;;;;;;;3.97;1.25;;;;;;;3.24;98.61;97772.44;5054517;28;20071;-59
2023/02/01 03:25:42;;;;;;;2.30;1.15;;;;;;;3.05;99.65;97776.63;5060724;28;20109;-60
2023/02/01 03:28:10;;;;;;;1.50;0.95;;;;;;;3.25;98.73;97776.81;5060427;28;20047;-58
2023/02/01 03:30:41;;;;;;;1.92;1.05;;;;;;;3.23;98.02;97766.28;5056431;28;20055;-60
2023/02/01 03:33:23;;;;;;;1.67;0.90;;;;;;;3.22;97.99;97783.38;5077796;28;20056;-60
2023/02/01 03:35:56;;;;;;;1.77;1.02;;;;;;;3.28;97.43;97786.28;5061406;28;20036;-61
2023/02/01 03:38:50;;;;;;;2.97;0.90;;;;;;;3.18;98.04;97787.47;5045302;28;20032;-61
2023/02/01 03:41:43;;;;;;;3.10;1.05;;;;;;;3.19;97.72;97794.47;5061302;28;20040;-61
2023/02/01 03:44:37;;;;;;;2.78;1.00;;;;;;;3.12;98.76;97780.19;5061899;28;20040;-61
2023/02/01 03:47:10;;;;;;;1.35;0.90;;;;;;;3.18;99.49;97767.88;5053815;28;20095;-60
2023/02/01 03:49:43;;;;;;;4.65;1.17;;;;;;;3.18;99.58;97763.38;5058244;28;20154;-61
2023/02/01 03:52:20;;;;;;;4.60;1.25;;;;;;;3.15;100.00;97760.25;5051509;28;20044;-61
2023/02/01 03:54:47;;;;;;;3.50;1.23;;;;;;;3.16;99.98;97773.44;5054636;28;20081;-61
2023/02/01 03:57:19;;;;;;;1.73;0.93;;;;;;;3.29;99.29;97766.53;5056189;28;20086;-61
2023/02/01 03:59:46;;;;;;;3.40;1.08;;;;;;;3.34;98.47;97764.94;5056310;28;20052;-62
2023/02/01 04:02:12;;;;;;;2.28;0.85;;;;;;;3.31;98.33;97759.16;5056175;28;20033;-61
2023/02/01 04:04:39;;;;;;;2.42;0.95;;;;;;;3.20;99.05;97773.84;5057686;28;20102;-60
2023/02/01 04:07:08;;;;;;;2.97;0.95;;;;;;;3.20;98.61;97780.06;5058167;28;20039;-60
2023/02/01 04:09:35;;;;;;;3.80;1.15;;;;;;;3.28;98.31;97789.78;5061530;28;20085;-61
2023/02/01 04:12:02;;;;;;;2.53;1.15;;;;;;;3.24;98.87;97784.00;5058532;28;20044;-61
2023/02/01 04:14:28;;;;;;;2.42;0.90;;;;;;;3.42;97.76;97780.00;5057235;28;20052;-60
2023/02/01 04:16:55;;;;;;;1.33;0.90;;;;;;;3.30;98.92;97773.53;5059976;28;20040;-59
2023/02/01 04:19:21;;;;;;;1.70;1.10;;;;;;;3.18;99.58;97776.75;5042201;28;20478;-60
2023/02/01 04:21:48;;;;;;;2.35;1.17;;;;;;;3.16;99.85;97762.72;5061251;28;20083;-61
2023/02/01 04:24:14;;;;;;;5.65;1.45;;;;;;;3.28;98.11;97764.88;5058939;28;20064;-58
2023/02/01 04:26:41;;;;;;;3.53;1.42;;;;;;;3.23;98.80;97777.00;5070207;28;20389;-60
2023/02/01 04:29:09;;;;;;;2.47;1.10;;;;;;;3.45;97.11;97787.66;5057661;28;20581;-62
2023/02/01 04:31:36;;;;;;;3.22;1.15;;;;;;;3.50;96.11;97803.09;5063264;28;20044;-60
2023/02/01 04:34:03;;;;;;;2.45;0.95;;;;;;;3.42;96.76;97809.44;5059815;28;20044;-61
2023/02/01 04:36:29;;;;;;;1.85;0.90;;;;;;;3.44;96.83;97795.88;5062781;28;20496;-59
2023/02/01 04:38:56;;;;;;;3.22;1.23;;;;;;;3.57;95.66;97801.31;5064358;28;20044;-61
2023/02/01 04:41:22;;;;;;;2.75;1.40;;;;;;;3.49;95.88;97796.09;5061842;28;20116;-60
2023/02/01 04:43:51;;;;;;;1.67;0.93;;;;;;;3.47;95.98;97792.81;5063087;28;20040;-61
2023/02/01 04:46:18;;;;;;;2.28;1.30;;;;;;;3.58;95.89;97786.09;5066720;28;20724;-61
2023/02/01 04:48:45;;;;;;;3.60;1.20;;;;;;;3.51;96.47;97778.00;5057198;28;20115;-62
2023/02/01 04:51:12;;;;;;;2.40;1.15;;;;;;;3.51;96.39;97767.31;5059348;28;20069;-61
2023/02/01 04:53:38;;;;;;;2.75;1.30;;;;;;;3.49;95.98;97767.50;5052749;28;20087;-61
2023/02/01 04:56:06;;;;;;;3.03;1.98;;;;;;;3.35;97.10;97769.25;5059683;28;20514;-61
2023/02/01 04:58:32;;;;;;;2.67;1.10;;;;;;;3.44;96.25;97772.63;5054615;28;20098;-61
2023/02/01 05:01:03;;;;;;;2.47;1.23;;;;;;;3.62;94.80;97773.94;5058803;28;20530;-62
2023/02/01 05:03:32;;;;;;;3.70;1.20;;;;;;;3.66;94.80;97772.53;5067391;28;20124;-61
2023/02/01 05:05:59;;;;;;;6.88;1.50;;;;;;;3.62;94.54;97774.75;5065426;28;20060;-61
2023/02/01 05:08:26;;;;;;;2.40;1.10;;;;;;;3.59;94.78;97775.19;5071136;28;20046;-61
2023/02/01 05:10:53;;;;;;;5.38;1.40;;;;;;;3.61;94.73;97780.34;5075624;28;20050;-61
2023/02/01 05:16:05;;;;;;;2.20;1.30;;;;;;;3.72;94.46;97774.41;5071022;28;20686;-61
2023/02/01 05:18:31;;;;;;;3.50;1.52;;;;;;;3.60;95.24;97773.31;5073770;28;20044;-61
2023/02/01 05:20:58;;;;;;;3.33;1.30;;;;;;;3.58;95.74;97778.06;5072155;28;20445;-61
2023/02/01 05:23:24;;;;;;;3.80;1.50;;;;;;;3.57;95.82;97776.41;5070145;28;20082;-62
2023/02/01 05:25:51;;;;;;;3.22;1.50;;;;;;;3.60;95.56;97766.13;5067886;28;20040;-61
2023/02/01 05:28:17;;;;;;;2.33;1.20;;;;;;;3.53;95.98;97767.09;5060881;28;20036;-61
2023/02/01 05:30:44;;;;;;;2.55;1.38;;;;;;;3.55;95.73;97773.91;5065609;28;20430;-61
2023/02/01 05:33:11;;;;;;;3.20;1.58;;;;;;;3.48;96.13;97775.72;5067911;28;20043;-60
2023/02/01 05:35:37;;;;;;;2.20;1.27;;;;;;;3.61;95.43;97780.34;5071287;28;20040;-60
2023/02/01 05:38:04;;;;;;;2.72;1.20;;;;;;;3.70;95.59;97787.19;5075508;28;20048;-60
2023/02/01 05:40:30;;;;;;;1.98;1.15;;;;;;;3.57;97.98;97792.47;5069643;28;20515;-62
2023/02/01 05:42:57;;;;;;;2.95;1.40;;;;;;;3.32;100.00;97784.88;5066273;28;20109;-61
2023/02/01 05:45:23;;;;;;;3.10;1.42;;;;;;;3.20;100.00;97789.91;5071274;28;20062;-61
2023/02/01 05:47:50;;;;;;;4.55;1.70;;;;;;;3.15;100.00;97784.31;5076956;28;20033;-60
2023/02/01 05:50:16;;;;;;;2.35;1.27;;;;;;;3.08;100.00;97803.00;5063820;28;20036;-60
2023/02/01 05:52:43;;;;;;;5.35;1.70;;;;;;;2.87;100.00;97796.66;5067235;28;20036;-60
2023/02/01 05:55:09;;;;;;;3.00;1.70;;;;;;;2.97;100.00;97781.13;5069980;28;20040;-59
2023/02/01 05:57:36;;;;;;;3.25;1.35;;;;;;;3.01;100.00;97789.56;5064791;28;20082;-61
2023/02/01 06:00:03;;;;;;;5.80;1.80;;;;;;;2.99;100.00;97789.75;5067998;28;20068;-61
2023/02/01 06:02:37;;;;;;;4.20;1.75;;;;;;;2.95;100.00;97782.34;5061789;28;20114;-60
2023/02/01 06:05:04;;;;;;;4.10;2.00;;;;;;;3.11;100.00;97790.09;5062593;28;20154;-60
2023/02/01 06:07:32;;;;;;;3.92;1.75;;;;;;;3.10;100.00;97784.94;5062055;28;20134;-60
2023/02/01 06:09:58;;;;;;;4.20;1.92;;;;;;;3.10;100.00;97784.94;5068611;28;20098;-61
2023/02/01 06:12:27;;;;;;;6.22;2.13;;;;;;;3.10;100.00;97768.88;5061566;28;20082;-61
2023/02/01 06:14:54;;;;;;;4.72;1.70;;;;;;;3.12;100.00;97777.53;5058815;28;20029;-61
2023/02/01 06:17:20;;;;;;;3.80;2.10;;;;;;;3.14;100.00;97785.34;5054298;28;20048;-61
2023/02/01 06:19:48;;;;;;;5.00;2.67;;;;;;;3.21;100.00;97797.75;5071806;28;20064;-59
2023/02/01 06:22:14;;;;;;;5.05;1.85;;;;;;;3.26;100.00;97799.88;5068844;28;20044;-59
2023/02/01 06:24:41;;;;;;;5.88;2.17;;;;;;;3.31;100.00;97792.06;5073258;28;20122;-61
2023/02/01 06:27:09;;;;;;;5.35;2.90;;;;;;;3.24;100.00;97788.50;5069968;28;20511;-60
2023/02/01 06:29:35;;;;;;;5.82;2.83;;;;;;;3.26;100.00;97789.16;5065532;28;20591;-57
2023/02/01 06:32:02;;;;;;;5.65;2.38;;;;;;;3.32;100.00;97776.84;5060419;28;20047;-61
2023/02/01 06:34:29;;;;;;;12.02;6.45;;;;;;;3.32;99.83;97793.72;5067457;28;20074;-59
2023/02/01 06:36:55;;;;;;;8.13;5.63;;;;;;;3.31;100.00;97777.88;5060320;28;20068;-60
2023/02/01 06:39:22;;;;;;;5.82;2.70;;;;;;;3.29;100.00;97778.06;5064802;28;20040;-59
2023/02/01 06:41:49;;;;;;;6.65;3.30;;;;;;;3.26;100.00;97778.44;5069703;28;20040;-61
2023/02/01 06:44:16;;;;;;;7.50;4.95;;;;;;;3.27;100.00;97787.31;5063481;28;20531;-61
2023/02/01 06:46:42;;;;;;;6.60;3.00;;;;;;;3.35;99.58;97781.78;5058973;28;20045;-61
2023/02/01 06:49:09;;;;;;;9.70;2.70;;;;;;;3.43;98.81;97783.50;5070404;28;20039;-61
2023/02/01 06:51:36;;;;;;;5.40;2.65;;;;;;;3.47;97.79;97793.63;5064648;28;20036;-61
2023/02/01 06:54:02;;;;;;;5.93;2.45;;;;;;;3.48;97.36;97791.78;5072026;28;20065;-60
2023/02/01 06:56:31;;;;;;;7.63;2.65;;;;;;;3.42;97.47;97784.53;5072002;28;20040;-60
2023/02/01 06:58:57;;;;;;;7.13;2.55;;;;;;;3.47;96.44;97790.13;5069525;28;20109;-58
2023/02/01 07:01:24;;;;;;;8.52;2.72;;;;;;;3.46;96.86;97796.53;5072710;28;20044;-62
2023/02/01 07:03:50;;;;;;;7.22;2.80;;;;;;;3.51;97.11;97796.75;5065382;28;20071;-52
2023/02/01 07:06:18;;;;;;;5.72;2.55;;;;;;;3.60;96.00;97800.09;5067692;28;20052;-57
2023/02/01 07:08:45;;;;;;;5.68;3.22;;;;;;;3.53;95.38;97817.97;5071011;28;20097;-58
2023/02/01 07:11:13;;;;;;;5.57;2.80;;;;;;;3.67;95.30;97819.72;5073285;28;20043;-48
2023/02/01 07:13:40;;;;;;;6.32;1.95;;;;;;;3.68;93.84;97816.00;5058051;28;20044;-60
2023/02/01 07:16:10;;;;;;;13.20;3.20;;;;;;;3.57;94.85;97812.03;5050967;28;20730;-59
2023/02/01 07:18:37;;;;;;;7.55;2.55;;;;;;;3.61;94.38;97818.63;5067902;28;20040;-59
2023/02/01 07:21:04;;;;;;;7.35;2.80;;;;;;;3.64;94.38;97814.75;5069891;28;20035;-60
2023/02/01 07:23:30;;;;;;;7.65;2.78;;;;;;;3.51;95.25;97827.00;5071924;28;20059;-61
2023/02/01 07:26:00;;;;;;;8.02;3.22;;;;;;;3.41;96.67;97837.25;5064183;28;20418;-61
2023/02/01 07:28:28;;;;;;;6.28;2.50;;;;;;;3.53;95.50;97829.50;5070474;28;20064;-59
2023/02/01 07:31:15;;;;;;;9.50;3.45;;;;;;;3.61;95.44;97831.22;5072394;28;20047;-59
2023/02/01 07:33:41;;;;;;;9.52;4.28;;;;;;;3.58;95.46;97826.25;5070930;28;20502;-59
2023/02/01 07:36:14;;;;;;;8.32;3.38;;;;;;;3.69;94.70;97827.56;5071485;28;20065;-60
2023/02/01 07:38:41;;;;;;;6.60;3.00;;;;;;;3.61;95.34;97832.03;5078510;28;20187;-61
2023/02/01 07:41:08;;;;;;;9.18;4.35;;;;;;;3.57;96.02;97841.47;5064452;28;20491;-59
2023/02/01 07:43:35;;;;;;;20.45;11.20;;;;;;;3.59;95.33;97826.06;5066901;28;20072;-59
2023/02/01 07:46:04;;;;;;;8.02;2.53;;;;;;;3.66;94.09;97820.75;5072635;28;20044;-59
2023/02/01 07:48:31;;;;;;;9.52;2.67;;;;;;;3.71;93.68;97818.28;5071034;28;20522;-61
2023/02/01 07:51:04;;;;;;;10.15;4.45;;;;;;;3.66;94.55;97823.41;5071041;28;20054;-60
2023/02/01 07:53:33;;;;;;;6.18;3.15;;;;;;;3.71;93.96;97820.13;5077449;28;20058;-60
2023/02/01 07:56:00;;;;;;;9.25;3.60;;;;;;;3.70;93.85;97813.13;5070813;28;20040;-61
2023/02/01 07:58:27;;;;;;;12.13;3.97;;;;;;;3.63;94.69;97805.06;5074286;28;20048;-60
2023/02/01 08:03:40;;;;;;;6.05;2.60;;;;;;;3.61;93.52;97807.94;5068158;28;20099;-61
2023/02/01 08:06:07;;;;;;;13.50;3.55;;;;;;;3.56;94.07;97818.41;5073095;28;20424;-61
2023/02/01 08:08:33;;;;;;;8.50;3.38;;;;;;;3.62;93.79;97803.41;5064282;28;20036;-60
2023/02/01 08:11:02;;;;;;;8.88;3.83;;;;;;;3.61;93.74;97809.81;5067561;28;20052;-60
2023/02/01 08:13:29;;;;;;;8.15;3.05;;;;;;;3.64;94.07;97823.63;5068643;28;20097;-60
2023/02/01 08:15:59;;;;;;;10.32;3.53;;;;;;;3.67;94.03;97805.47;5065142;28;20071;-61
2023/02/01 08:18:26;;;;;;;6.10;2.60;;;;;;;3.70;93.17;97808.63;5070579;28;20145;-61
2023/02/01 08:20:53;;;;;;;8.80;3.05;;;;;;;3.70;92.73;97822.00;5063383;28;20048;-60
2023/02/01 08:23:20;;;;;;;9.20;3.30;;;;;;;3.60;92.39;97811.63;5063493;28;20052;-59
2023/02/01 08:25:47;;;;;;;8.10;2.83;;;;;;;3.70;92.42;97821.16;5063270;28;20128;-61
2023/02/01 08:28:14;;;;;;;5.95;2.42;;;;;;;3.77;90.96;97812.13;5066766;28;20055;-58
2023/02/01 08:30:42;;;;;;;4.47;2.10;;;;;;;3.76;90.79;97805.13;5073392;28;20067;-60
2023/02/01 08:33:09;;;;;;;8.40;2.70;;;;;;;3.90;90.04;97818.59;5068937;28;20565;-60
2023/02/01 08:35:36;;;;;;;7.13;2.03;;;;;;;3.97;89.53;97822.16;5077508;28;20108;-60
2023/02/01 08:38:10;;;;;;;8.23;2.90;;;;;;;3.94;89.75;97837.81;5075538;28;20139;-60
2023/02/01 08:40:36;;;;;;;5.18;2.60;;;;;;;3.96;90.00;97825.88;5069709;28;20048;-61
2023/02/01 08:43:03;;;;;;;10.88;3.33;;;;;;;3.99;89.94;97819.28;5073144;28;20068;-60
2023/02/01 08:45:29;;;;;;;9.95;2.63;;;;;;;4.02;89.49;97821.56;5073975;28;20082;-61
2023/02/01 08:47:57;;;;;;;9.02;2.60;;;;;;;4.08;89.81;97822.59;5072466;28;20851;-58
2023/02/01 08:50:24;;;;;;;11.40;2.38;;;;;;;4.09;89.24;97838.50;5070998;28;20055;-61
2023/02/01 08:52:53;;;;;;;9.25;2.75;;;;;;;4.03;90.24;97850.00;5067673;28;20035;-62
2023/02/01 08:55:20;;;;;;;9.18;1.88;;;;;;;4.09;90.11;97832.31;5067884;28;20051;-61
2023/02/01 08:57:46;;;;;;;8.25;2.35;;;;;;;4.05;90.20;97836.41;5071895;28;20047;-60
2023/02/01 09:00:15;;;;;;;5.53;2.20;;;;;;;4.01;90.49;97839.50;5063370;28;20048;-61
2023/02/01 09:02:42;;;;;;;8.13;2.38;;;;;;;3.98;90.24;97845.22;5067170;28;20036;-61
2023/02/01 09:05:10;;;;;;;9.20;2.45;;;;;;;3.90;90.67;97853.44;5076254;28;20056;-61
2023/02/01 09:07:37;;;;;;;9.73;2.63;;;;;;;3.98;90.07;97872.03;5069177;28;20044;-60
2023/02/01 09:10:05;;;;;;;7.72;2.75;;;;;;;4.08;89.05;97873.53;5072538;28;20040;-61
2023/02/01 09:12:33;;;;;;;8.80;2.55;;;;;;;4.02;89.79;97864.44;5069894;28;20069;-60
2023/02/01 09:15:00;;;;;;;12.20;2.63;;;;;;;4.06;89.06;97868.38;5069563;28;20052;-60
2023/02/01 09:17:27;;;;;;;14.00;2.67;;;;;;;4.05;88.61;97858.66;5073226;28;20043;-61
2023/02/01 09:19:59;;;;;;;8.23;2.35;;;;;;;4.09;87.11;97857.25;5063125;28;20523;-61
2023/02/01 09:22:25;;;;;;;8.25;2.00;;;;;;;4.12;87.50;97858.69;5071868;28;20535;-61
2023/02/01 09:24:53;;;;;;;8.65;2.38;;;;;;;4.10;87.97;97868.81;5069823;28;20127;-59
2023/02/01 09:27:21;;;;;;;12.45;2.22;;;;;;;4.12;87.49;97869.41;5071510;28;20040;-61
2023/02/01 09:29:52;;;;;;;9.82;2.80;;;;;;;4.08;87.63;97866.31;5068647;28;20036;-61
2023/02/01 09:32:20;;;;;;;7.25;2.03;;;;;;;4.16;86.99;97873.38;5062951;28;20494;-61
2023/02/01 09:34:48;;;;;;;7.80;1.83;;;;;;;4.10;86.69;97869.66;5069168;28;20043;-61
2023/02/01 09:37:14;;;;;;;11.55;2.78;;;;;;;4.11;86.86;97857.06;5069681;28;20691;-61
2023/02/01 09:39:42;;;;;;;8.90;2.38;;;;;;;4.10;86.81;97856.25;5072056;28;20043;-60
2023/02/01 09:42:25;;;;;;;11.82;3.28;;;;;;;4.08;86.62;97874.38;5068340;28;20483;-61
2023/02/01 09:44:52;;;;;;;11.93;3.00;;;;;;;4.27;85.49;97856.72;5061679;28;20040;-61
2023/02/01 09:47:21;;;;;;;10.27;2.83;;;;;;;4.20;85.45;97863.09;5068597;28;20040;-61
2023/02/01 09:50:17;;;;;;;5.47;2.00;;;;;;;4.11;85.18;97865.09;5065620;28;20031;-61
2023/02/01 09:52:51;;;;;;;6.43;1.65;;;;;;;4.13;85.06;97873.78;5056880;28;20056;-59
2023/02/01 09:55:32;;;;;;;8.60;1.92;;;;;;;4.12;85.17;97864.06;5062416;28;20062;-60
2023/02/01 09:58:03;;;;;;;9.95;2.33;;;;;;;4.03;84.62;97880.31;5067490;28;20127;-61
2023/02/01 10:00:34;;;;;;;11.07;2.30;;;;;;;4.06;84.87;97886.31;5069144;28;20381;-61
2023/02/01 10:03:02;;;;;;;8.93;2.33;;;;;;;4.09;84.36;97886.72;5066585;28;20131;-59
2023/02/01 10:06:00;;;;;;;7.32;1.75;;;;;;;4.06;84.28;97881.78;5073336;28;20067;-59
2023/02/01 10:09:06;;;;;;;9.85;2.50;;;;;;;4.10;85.32;97884.88;5063755;28;20524;-60
2023/02/01 10:11:56;;;;;;;7.35;2.03;;;;;;;4.20;83.41;97871.13;5064107;28;20067;-60
2023/02/01 10:14:34;;;;;;;9.85;2.97;;;;;;;4.27;83.76;97875.50;5071005;28;20040;-61
2023/02/01 10:17:25;;;;;;;5.82;2.10;;;;;;;4.32;82.97;97895.50;5068400;28;20036;-61
2023/02/01 10:20:17;;;;;;;11.07;2.40;;;;;;;4.36;83.01;97908.34;5070809;28;20538;-61
2023/02/01 10:22:46;;;;;;;5.65;2.05;;;;;;;4.60;82.88;97916.88;5064767;28;20036;-61
2023/02/01 10:25:55;;;;;;;5.38;1.65;;;;;;;4.69;81.65;97907.63;5068441;28;20048;-60
2023/02/01 10:28:25;;;;;;;10.98;2.00;;;;;;;4.52;83.04;97912.53;5068466;28;20793;-61
2023/02/01 10:30:58;;;;;;;7.53;2.08;;;;;;;4.53;82.33;97916.03;5068068;28;20040;-59
2023/02/01 10:33:32;;;;;;;6.90;1.92;;;;;;;4.53;82.83;97921.38;5065868;28;20037;-61
2023/02/01 10:36:05;;;;;;;9.30;2.05;;;;;;;4.49;82.05;97912.94;5071401;28;20048;-61
2023/02/01 10:38:33;;;;;;;7.18;1.55;;;;;;;4.40;81.58;97923.00;5069245;28;20044;-60
2023/02/01 10:41:37;;;;;;;7.05;1.58;;;;;;;4.30;81.87;97922.53;5068877;28;20040;-60
2023/02/01 10:44:14;;;;;;;6.68;1.88;;;;;;;4.40;81.53;97923.00;5068725;28;20451;-60
2023/02/01 10:46:40;;;;;;;9.35;2.65;;;;;;;4.46;81.80;97928.59;5074603;28;20039;-61
2023/02/01 10:49:19;;;;;;;14.27;2.38;;;;;;;4.53;80.91;97910.66;5068010;28;20052;-59
2023/02/01 10:51:52;;;;;;;11.63;2.75;;;;;;;4.47;81.24;97923.03;5065746;28;20067;-61
2023/02/01 10:54:21;;;;;;;4.45;1.85;;;;;;;4.50;81.72;97905.72;5064010;28;20052;-60
2023/02/01 10:56:49;;;;;;;12.68;3.10;;;;;;;4.51;80.50;97908.19;5072780;28;20071;-61
2023/02/01 10:59:18;;;;;;;11.70;2.45;;;;;;;4.57;80.96;97901.19;5063644;28;20120;-61
2023/02/01 11:01:48;;;;;;;14.27;3.45;;;;;;;4.57;80.10;97897.69;5069980;28;20461;-61
2023/02/01 11:04:17;;;;;;;11.35;2.15;;;;;;;4.48;79.51;97903.22;5073198;28;20676;-61
2023/02/01 11:06:46;;;;;;;9.85;2.05;;;;;;;4.51;80.44;97897.47;5068822;28;20099;-61
2023/02/01 11:09:21;;;;;;;12.20;2.85;;;;;;;4.59;78.68;97909.88;5061638;28;20134;-60
2023/02/01 11:11:48;;;;;;;7.22;2.00;;;;;;;4.55;79.09;97922.03;5071481;28;20683;-61
2023/02/01 11:14:27;;;;;;;8.10;1.88;;;;;;;4.58;77.77;97902.03;5065831;28;20049;-57
2023/02/01 11:17:18;;;;;;;7.45;1.55;;;;;;;4.72;78.66;97914.44;5076923;28;20040;-59
2023/02/01 11:19:46;;;;;;;10.13;1.92;;;;;;;4.71;78.27;97898.59;5064844;28;20036;-60
2023/02/01 11:22:14;;;;;;;9.30;1.90;;;;;;;4.66;77.84;97894.66;5070445;28;20056;-60
2023/02/01 11:24:45;;;;;;;11.27;1.90;;;;;;;4.88;77.45;97894.50;5053332;28;20106;-61
2023/02/01 11:27:17;;;;;;;10.82;2.13;;;;;;;4.77;77.73;97897.75;5064028;28;20049;-59
2023/02/01 11:30:00;;;;;;;9.32;2.17;;;;;;;4.72;77.65;97886.81;5065166;28;20113;-60
2023/02/01 11:32:27;;;;;;;12.75;2.30;;;;;;;4.86;77.09;97882.31;5068991;28;20046;-60
2023/02/01 11:34:57;;;;;;;10.25;1.98;;;;;;;5.00;74.87;97869.75;5071758;28;20595;-59
2023/02/01 11:37:27;;;;;;;8.88;1.67;;;;;;;5.10;74.32;97872.03;5066352;28;20633;-61
2023/02/01 11:39:56;;;;;;;10.50;2.15;;;;;;;4.98;72.66;97848.50;5073473;28;20048;-61
2023/02/01 11:42:23;;;;;;;4.85;1.45;;;;;;;4.99;72.08;97852.84;5071808;28;20036;-60
2023/02/01 11:44:50;;;;;;;4.32;1.60;;;;;;;5.19;70.81;97843.97;5066008;28;20044;-61
2023/02/01 11:47:21;;;;;;;5.80;1.58;;;;;;;5.27;70.07;97840.28;5073601;28;20047;-61
2023/02/01 11:49:50;;;;;;;8.77;1.52;;;;;;;5.11;70.49;97838.78;5066920;28;20036;-60
2023/02/01 11:52:55;;;;;;;8.10;2.35;;;;;;;4.99;71.58;97831.38;5069049;28;20127;-61
2023/02/01 11:55:50;;;;;;;7.63;1.40;;;;;;;4.80;71.28;97838.34;5071955;28;20507;-60
2023/02/01 11:58:31;;;;;;;5.55;1.95;;;;;;;4.62;71.54;97844.28;5062828;28;20097;-60
2023/02/01 12:01:29;;;;;;;6.78;1.92;;;;;;;4.65;72.08;97838.50;5066918;28;20060;-60
2023/02/01 12:04:30;;;;;;;7.18;1.88;;;;;;;4.59;73.26;97810.63;5072941;28;20131;-61
2023/02/01 12:07:09;;;;;;;7.78;1.90;;;;;;;4.77;73.09;97818.13;5067952;28;20470;-61
2023/02/01 12:09:57;;;;;;;9.85;1.90;;;;;;;4.73;73.36;97837.50;5070874;28;20123;-61
2023/02/01 12:12:39;;;;;;;6.38;1.70;;;;;;;4.64;72.80;97823.47;5074050;28;20055;-61
2023/02/01 12:15:14;;;;;;;10.43;1.75;;;;;;;4.79;72.64;97824.09;5080182;28;20040;-61
2023/02/01 12:17:58;;;;;;;8.35;1.77;;;;;;;4.69;73.58;97823.66;5076027;28;20044;-59
2023/02/01 12:20:53;;;;;;;9.30;1.88;;;;;;;4.63;73.65;97821.78;5066887;28;20105;-61
2023/02/01 12:23:55;;;;;;;9.20;1.83;;;;;;;4.52;74.48;97842.81;5067690;28;20525;-61
2023/02/01 12:26:39;;;;;;;6.65;1.63;;;;;;;4.34;76.49;97840.66;5055531;28;20508;-60